createdAt,value
2018-05-13T00:01:13.071Z,75.05
2018-05-13T00:03:40.619Z,75.26
2018-05-13T00:06:08.842Z,75.58
2018-05-13T00:08:37.270Z,75.54
2018-05-13T00:11:05.379Z,75.98
2018-05-13T00:13:32.923Z,76.23
2018-05-13T00:16:01.036Z,76.38
2018-05-13T00:18:29.462Z,76.62
2018-05-13T00:20:57.784Z,76.52
2018-05-13T00:23:25.327Z,76.88
2018-05-13T00:25:53.734Z,76.98
2018-05-13T00:28:21.265Z,77.05
2018-05-13T00:30:48.821Z,77.37
2018-05-13T00:33:17.086Z,77.46
2018-05-13T00:35:45.445Z,77.48
2018-05-13T00:38:12.988Z,77.92
2018-05-13T00:40:40.637Z,77.75
2018-05-13T00:43:08.591Z,78.07
2018-05-13T00:45:36.131Z,78.40
2018-05-13T00:48:04.640Z,78.31
2018-05-13T00:50:32.648Z,78.33
2018-05-13T00:53:00.246Z,78.65
2018-05-13T00:55:28.748Z,78.76
2018-05-13T00:57:56.315Z,78.91
2018-05-13T01:00:23.888Z,79.01
2018-05-13T01:02:51.486Z,79.07
2018-05-13T01:05:19.503Z,79.29
2018-05-13T01:07:48.915Z,79.20
2018-05-13T01:10:16.975Z,79.29
2018-05-13T01:12:44.512Z,79.37
2018-05-13T01:15:12.642Z,79.52
2018-05-13T01:17:40.783Z,79.70
2018-05-13T01:20:08.372Z,79.68
2018-05-13T01:22:35.923Z,79.74
2018-05-13T01:25:03.520Z,79.71
2018-05-13T01:27:31.513Z,79.99
2018-05-13T01:29:59.155Z,79.99
2018-05-13T01:32:26.695Z,80.14
2018-05-13T01:34:54.982Z,80.26
2018-05-13T01:37:22.514Z,80.24
2018-05-13T01:39:50.442Z,80.37
2018-05-13T01:42:18.014Z,80.53
2018-05-13T01:44:45.562Z,80.70
2018-05-13T01:47:14.149Z,80.73
2018-05-13T01:49:41.688Z,80.93
2018-05-13T01:52:09.228Z,81.06
2018-05-13T01:54:36.802Z,81.07
2018-05-13T01:57:04.433Z,81.30
2018-05-13T01:59:31.998Z,81.46
2018-05-13T02:02:01.043Z,81.51
2018-05-13T02:04:28.601Z,81.91
2018-05-13T02:06:56.639Z,82.12
2018-05-13T02:09:24.726Z,82.22
2018-05-13T02:11:52.279Z,82.23
2018-05-13T02:14:21.264Z,82.08
2018-05-13T02:16:48.804Z,82.11
2018-05-13T02:19:17.269Z,81.94
2018-05-13T02:21:44.809Z,81.73
2018-05-13T02:24:12.353Z,81.84
2018-05-13T02:26:40.565Z,81.57
2018-05-13T02:29:08.111Z,81.72
2018-05-13T02:31:35.651Z,81.74
2018-05-13T02:34:03.769Z,81.91
2018-05-13T02:36:33.078Z,81.70
2018-05-13T02:39:00.693Z,81.92
2018-05-13T02:41:28.266Z,81.84
2018-05-13T02:43:56.494Z,81.83
2018-05-13T02:46:24.774Z,81.84
2018-05-13T02:48:52.381Z,81.84
2018-05-13T02:51:19.910Z,81.69
2018-05-13T02:53:47.501Z,81.37
2018-05-13T02:56:15.052Z,80.81
2018-05-13T02:58:42.623Z,80.29
2018-05-13T03:01:10.192Z,79.73
2018-05-13T03:03:37.731Z,79.25
2018-05-13T03:06:05.923Z,78.17
2018-05-13T03:08:34.519Z,77.47
2018-05-13T03:11:02.721Z,76.76
2018-05-13T03:13:30.667Z,76.05
2018-05-13T03:15:59.098Z,74.87
2018-05-13T03:18:27.111Z,73.73
2018-05-13T03:20:54.671Z,72.56
2018-05-13T03:23:22.210Z,71.44
2018-05-13T03:25:49.794Z,70.62
2018-05-13T03:28:17.934Z,70.31
2018-05-13T03:30:46.187Z,69.52
2018-05-13T03:33:14.209Z,68.17
2018-05-13T03:35:42.372Z,67.44
2018-05-13T03:38:09.917Z,67.73
2018-05-13T03:40:37.454Z,65.63
2018-05-13T03:43:06.259Z,65.17
2018-05-13T03:45:33.793Z,64.52
2018-05-13T03:48:03.177Z,63.74
2018-05-13T03:50:31.609Z,62.87
2018-05-13T03:53:00.333Z,62.82
2018-05-13T03:55:27.903Z,62.85
2018-05-13T03:57:55.519Z,63.45
2018-05-13T04:00:23.063Z,63.29
2018-05-13T04:02:50.775Z,62.14
2018-05-13T04:05:19.441Z,63.23
2018-05-13T04:11:20.540Z,63.28
2018-05-13T04:14:00.927Z,64.42
2018-05-13T04:16:28.458Z,65.20
2018-05-13T04:18:56.526Z,65.74
2018-05-13T04:21:24.070Z,66.41
2018-05-13T04:23:51.619Z,66.68
2018-05-13T04:26:19.204Z,67.07
2018-05-13T04:28:47.957Z,67.31
2018-05-13T04:31:16.960Z,67.86
2018-05-13T04:33:45.363Z,68.04
2018-05-13T04:36:12.903Z,68.11
2018-05-13T04:38:40.438Z,67.99
2018-05-13T04:41:08.010Z,68.03
2018-05-13T04:43:36.089Z,68.06
2018-05-13T04:46:03.638Z,67.10
2018-05-13T04:48:32.122Z,67.57
2018-05-13T04:50:59.708Z,67.51
2018-05-13T04:53:27.299Z,67.82
2018-05-13T04:55:54.865Z,67.55
2018-05-13T04:58:22.393Z,68.07
2018-05-13T05:00:50.038Z,67.35
2018-05-13T05:03:17.893Z,67.40
2018-05-13T05:05:46.164Z,67.88
2018-05-13T05:08:14.443Z,67.76
2018-05-13T05:10:43.036Z,66.76
2018-05-13T05:13:10.563Z,67.55
2018-05-13T05:15:38.651Z,67.25
2018-05-13T05:18:06.768Z,67.06
2018-05-13T05:20:34.312Z,66.92
2018-05-13T05:23:02.082Z,65.92
2018-05-13T05:25:29.842Z,66.37
2018-05-13T05:27:58.378Z,66.34
2018-05-13T05:30:26.315Z,65.82
2018-05-13T05:32:53.847Z,65.52
2018-05-13T05:35:21.976Z,64.03
2018-05-13T05:37:49.527Z,63.92
2018-05-13T05:40:17.061Z,63.61
2018-05-13T05:42:44.625Z,63.06
2018-05-13T05:45:12.611Z,62.64
2018-05-13T05:47:40.687Z,62.16
2018-05-13T05:50:08.231Z,61.76
2018-05-13T05:52:35.755Z,61.96
2018-05-13T05:55:03.416Z,60.78
2018-05-13T05:57:31.766Z,60.72
2018-05-13T05:59:59.303Z,60.43
2018-05-13T06:02:26.867Z,60.39
2018-05-13T06:04:54.937Z,60.07
2018-05-13T06:07:22.481Z,59.65
2018-05-13T06:09:50.483Z,59.36
2018-05-13T06:12:18.074Z,59.78
2018-05-13T06:14:46.194Z,58.80
2018-05-13T06:17:13.791Z,59.00
2018-05-13T06:19:43.157Z,58.33
2018-05-13T06:22:10.714Z,58.49
2018-05-13T06:24:38.311Z,56.95
2018-05-13T06:27:06.723Z,56.72
2018-05-13T06:29:34.255Z,56.82
2018-05-13T06:32:02.044Z,55.01
2018-05-13T06:34:31.098Z,54.68
2018-05-13T06:36:58.631Z,54.23
2018-05-13T06:39:26.162Z,53.13
2018-05-13T06:41:53.904Z,53.88
2018-05-13T06:44:22.180Z,53.72
2018-05-13T06:46:50.534Z,54.53
2018-05-13T06:49:18.077Z,52.63
2018-05-13T06:51:45.614Z,53.38
2018-05-13T06:54:13.181Z,53.45
2018-05-13T06:56:40.722Z,52.90
2018-05-13T06:59:08.254Z,53.24
2018-05-13T07:01:36.607Z,52.79
2018-05-13T07:04:04.188Z,52.92
2018-05-13T07:06:32.890Z,52.32
2018-05-13T07:09:01.186Z,50.80
2018-05-13T07:11:29.159Z,50.04
2018-05-13T07:13:57.403Z,50.40
2018-05-13T07:16:25.015Z,51.59
2018-05-13T07:18:53.243Z,51.04
2018-05-13T07:21:20.830Z,49.40
2018-05-13T07:23:48.378Z,48.53
2018-05-13T07:26:16.584Z,49.52
2018-05-13T07:28:44.483Z,49.16
2018-05-13T07:31:12.013Z,49.20
2018-05-13T07:33:40.302Z,48.59
2018-05-13T07:36:07.831Z,48.15
2018-05-13T07:38:35.363Z,47.29
2018-05-13T07:41:03.135Z,47.47
2018-05-13T07:43:31.616Z,46.72
2018-05-13T07:45:59.122Z,47.10
2018-05-13T07:48:27.210Z,47.00
2018-05-13T07:50:55.037Z,47.44
2018-05-13T07:53:22.505Z,46.51
2018-05-13T07:55:50.065Z,45.33
2018-05-13T07:58:17.604Z,45.92
2018-05-13T08:00:45.168Z,44.43
2018-05-13T08:03:12.760Z,44.29
2018-05-13T08:05:40.974Z,44.69
2018-05-13T08:08:09.416Z,45.57
2018-05-13T08:10:37.436Z,43.21
2018-05-13T08:13:04.978Z,43.42
2018-05-13T08:15:33.812Z,42.21
2018-05-13T08:18:01.800Z,43.46
2018-05-13T08:20:29.377Z,43.21
2018-05-13T08:22:57.770Z,43.99
2018-05-13T08:25:25.280Z,42.50
2018-05-13T08:27:53.498Z,42.29
2018-05-13T08:30:21.052Z,40.47
2018-05-13T08:32:48.631Z,39.90
2018-05-13T08:35:16.777Z,41.04
2018-05-13T08:37:44.318Z,40.33
2018-05-13T08:40:11.873Z,39.79
2018-05-13T08:42:39.451Z,39.63
2018-05-13T08:45:07.702Z,39.67
2018-05-13T08:47:37.063Z,38.64
2018-05-13T08:50:04.899Z,41.36
2018-05-13T08:52:32.485Z,40.38
2018-05-13T08:55:00.064Z,41.08
2018-05-13T08:57:27.595Z,40.61
2018-05-13T08:59:55.167Z,39.76
2018-05-13T09:02:22.894Z,39.39
2018-05-13T09:04:51.250Z,39.42
2018-05-13T09:07:19.522Z,39.02
2018-05-13T09:09:47.863Z,37.62
2018-05-13T09:12:15.397Z,37.14
2018-05-13T09:14:44.164Z,36.90
2018-05-13T09:17:11.715Z,36.17
2018-05-13T09:19:39.794Z,36.82
2018-05-13T09:22:07.345Z,38.75
2018-05-13T09:24:35.220Z,37.42
2018-05-13T09:27:04.739Z,36.07
2018-05-13T09:29:32.317Z,36.79
2018-05-13T09:31:59.842Z,37.47
2018-05-13T09:34:28.027Z,37.33
2018-05-13T09:36:55.590Z,37.48
2018-05-13T09:39:23.204Z,36.69
2018-05-13T09:41:50.725Z,35.61
2018-05-13T09:44:18.691Z,36.09
2018-05-13T09:46:47.059Z,35.70
2018-05-13T09:49:14.595Z,36.08
2018-05-13T09:51:42.133Z,33.94
2018-05-13T09:54:09.703Z,34.92
2018-05-13T09:56:37.288Z,34.63
2018-05-13T09:59:04.976Z,34.39
2018-05-13T10:01:32.699Z,35.00
2018-05-13T10:04:00.305Z,34.08
2018-05-13T10:06:28.430Z,35.03
2018-05-13T10:08:55.959Z,35.78
2018-05-13T10:11:23.507Z,35.20
2018-05-13T10:13:51.933Z,33.83
2018-05-13T10:16:19.498Z,33.82
2018-05-13T10:18:47.708Z,34.59
2018-05-13T10:21:15.271Z,34.14
2018-05-13T10:23:42.831Z,33.36
2018-05-13T10:26:10.403Z,33.57
2018-05-13T10:28:38.673Z,33.73
2018-05-13T10:31:07.093Z,31.47
2018-05-13T10:33:35.758Z,32.93
2018-05-13T10:36:03.299Z,32.80
2018-05-13T10:38:31.006Z,33.12
2018-05-13T10:40:58.563Z,32.81
2018-05-13T10:43:26.995Z,33.91
2018-05-13T10:45:54.522Z,34.41
2018-05-13T10:48:22.910Z,34.35
2018-05-13T10:50:50.446Z,34.79
2018-05-13T10:53:18.000Z,34.38
2018-05-13T10:55:45.614Z,33.80
2018-05-13T10:58:13.142Z,33.44
2018-05-13T11:00:40.684Z,33.25
2018-05-13T11:03:08.263Z,32.82
2018-05-13T11:05:37.307Z,32.73
2018-05-13T11:08:06.554Z,32.66
2018-05-13T11:10:34.244Z,33.03
2018-05-13T11:13:01.807Z,31.41
2018-05-13T11:15:30.170Z,33.04
2018-05-13T11:17:58.354Z,32.22
2018-05-13T11:20:25.910Z,33.01
2018-05-13T11:22:53.454Z,32.63
2018-05-13T11:25:21.034Z,31.44
2018-05-13T11:27:49.706Z,31.89
2018-05-13T11:30:17.234Z,32.22
2018-05-13T11:32:44.798Z,32.77
2018-05-13T11:35:13.123Z,31.34
2018-05-13T11:37:40.655Z,32.40
2018-05-13T11:40:08.296Z,30.65
2018-05-13T11:42:35.998Z,31.50
2018-05-13T11:45:04.479Z,29.59
2018-05-13T11:47:32.780Z,29.03
2018-05-13T11:50:00.320Z,30.05
2018-05-13T11:52:27.865Z,28.50
2018-05-13T11:54:55.424Z,29.41
2018-05-13T11:57:22.971Z,27.33
2018-05-13T11:59:50.502Z,27.11
2018-05-13T12:02:18.093Z,27.86
2018-05-13T12:04:46.240Z,27.28
2018-05-13T12:07:13.793Z,28.51
2018-05-13T12:09:41.330Z,28.73
2018-05-13T12:12:09.474Z,28.79
2018-05-13T12:14:37.636Z,28.04
2018-05-13T12:17:05.787Z,26.28
2018-05-13T12:19:33.801Z,27.32
2018-05-13T12:22:01.384Z,28.50
2018-05-13T12:24:28.919Z,28.90
2018-05-13T12:26:57.453Z,28.42
2018-05-13T12:29:24.978Z,28.43
2018-05-13T12:31:52.541Z,27.77
2018-05-13T12:34:20.794Z,27.48
2018-05-13T12:36:48.326Z,28.18
2018-05-13T12:39:16.527Z,26.80
2018-05-13T12:41:44.064Z,27.13
2018-05-13T12:44:11.601Z,26.47
2018-05-13T12:46:39.978Z,26.76
2018-05-13T12:49:08.188Z,26.89
2018-05-13T12:51:36.021Z,27.40
2018-05-13T12:54:04.030Z,26.36
2018-05-13T12:56:31.640Z,26.48
2018-05-13T12:58:59.181Z,27.01
2018-05-13T13:01:26.716Z,27.81
2018-05-13T13:03:54.425Z,28.16
2018-05-13T13:06:22.587Z,26.33
2018-05-13T13:08:50.165Z,26.89
2018-05-13T13:11:18.511Z,26.81
2018-05-13T13:13:46.068Z,26.45
2018-05-13T13:16:14.219Z,26.46
2018-05-13T13:18:42.216Z,26.83
2018-05-13T13:21:09.806Z,27.32
2018-05-13T13:23:37.358Z,28.73
2018-05-13T13:26:05.068Z,28.25
2018-05-13T13:28:34.677Z,26.42
2018-05-13T13:31:02.241Z,26.42
2018-05-13T13:33:30.515Z,27.04
2018-05-13T13:35:58.642Z,26.69
2018-05-13T13:38:27.963Z,26.01
2018-05-13T13:40:55.507Z,26.17
2018-05-13T13:43:23.057Z,25.95
2018-05-13T13:45:50.622Z,26.95
2018-05-13T13:48:18.642Z,26.68
2018-05-13T13:50:46.178Z,26.22
2018-05-13T13:53:13.751Z,26.29
2018-05-13T13:55:41.314Z,27.23
2018-05-13T13:58:08.875Z,27.34
2018-05-13T14:00:36.894Z,26.54
2018-05-13T14:03:04.924Z,26.48
2018-05-13T14:05:33.189Z,26.36
2018-05-13T14:08:01.523Z,27.12
2018-05-13T14:10:29.047Z,26.87
2018-05-13T14:12:56.586Z,27.46
2018-05-13T14:15:24.705Z,27.47
2018-05-13T14:17:52.834Z,26.50
2018-05-13T14:20:20.409Z,26.52
2018-05-13T14:22:47.953Z,26.44
2018-05-13T14:25:15.562Z,26.67
2018-05-13T14:27:44.506Z,27.45
2018-05-13T14:30:12.294Z,27.23
2018-05-13T14:32:40.664Z,26.46
2018-05-13T14:35:08.899Z,27.62
2018-05-13T14:37:36.624Z,26.33
2018-05-13T14:40:04.457Z,26.90
2018-05-13T14:42:32.065Z,26.20
2018-05-13T14:44:59.620Z,27.03
2018-05-13T14:47:27.701Z,27.29
2018-05-13T14:49:55.269Z,26.97
2018-05-13T14:52:22.852Z,26.36
2018-05-13T14:54:50.418Z,26.17
2018-05-13T14:57:18.708Z,26.08
2018-05-13T14:59:46.262Z,25.43
2018-05-13T15:02:14.515Z,26.67
2018-05-13T15:04:42.608Z,27.11
2018-05-13T15:07:10.635Z,26.80
2018-05-13T15:09:38.177Z,27.06
2018-05-13T15:12:06.278Z,26.25
2018-05-13T15:14:34.657Z,25.65
2018-05-13T15:17:02.193Z,25.61
2018-05-13T15:19:30.291Z,26.11
2018-05-13T15:21:57.904Z,26.04
2018-05-13T15:24:25.434Z,26.46
2018-05-13T15:26:53.871Z,25.95
2018-05-13T15:29:21.423Z,25.10
2018-05-13T15:31:48.959Z,24.63
2018-05-13T15:34:16.900Z,23.93
2018-05-13T15:36:44.447Z,23.08
2018-05-13T15:39:11.980Z,22.88
2018-05-13T15:41:39.548Z,22.12
2018-05-13T15:44:07.641Z,21.79
2018-05-13T15:46:36.133Z,21.86
2018-05-13T15:49:04.707Z,21.74
2018-05-13T15:51:32.237Z,21.48
2018-05-13T15:53:59.802Z,21.42
2018-05-13T15:56:27.396Z,21.24
2018-05-13T15:58:54.957Z,20.75
2018-05-13T16:01:22.968Z,20.11
2018-05-13T16:03:51.167Z,19.23
2018-05-13T16:06:19.763Z,19.21
2018-05-13T16:08:47.322Z,18.96
2018-05-13T16:11:15.235Z,19.37
2018-05-13T16:13:42.768Z,19.60
2018-05-13T16:16:10.854Z,18.50
2018-05-13T16:18:39.298Z,18.05
2018-05-13T16:21:06.956Z,18.33
2018-05-13T16:23:34.536Z,17.59
2018-05-13T16:26:02.201Z,17.30
2018-05-13T16:28:30.660Z,17.67
2018-05-13T16:30:58.219Z,17.54
2018-05-13T16:33:26.862Z,17.91
2018-05-13T16:35:54.367Z,17.30
2018-05-13T16:38:21.920Z,17.63
2018-05-13T16:40:49.479Z,16.84
2018-05-13T16:43:17.477Z,16.56
2018-05-13T16:45:45.032Z,16.96
2018-05-13T16:48:14.054Z,16.63
2018-05-13T16:50:41.604Z,16.90
2018-05-13T16:53:09.191Z,18.09
2018-05-13T16:55:36.977Z,19.20
2018-05-13T16:58:04.536Z,19.53
2018-05-13T17:00:32.853Z,19.97
2018-05-13T17:03:00.872Z,19.79
2018-05-13T17:05:29.315Z,20.10
2018-05-13T17:07:56.851Z,20.42
2018-05-13T17:10:24.387Z,20.15
2018-05-13T17:12:51.959Z,20.00
2018-05-13T17:15:20.475Z,20.50
2018-05-13T17:17:48.454Z,21.06
2018-05-13T17:20:16.008Z,21.31
2018-05-13T17:22:43.543Z,21.49
2018-05-13T17:25:11.180Z,21.32
2018-05-13T17:27:39.462Z,21.42
2018-05-13T17:30:09.155Z,21.83
2018-05-13T17:32:41.128Z,22.01
2018-05-13T17:35:09.549Z,22.10
2018-05-13T17:37:37.521Z,22.16
2018-05-13T17:40:05.062Z,22.65
2018-05-13T17:42:32.637Z,23.26
2018-05-13T17:45:00.707Z,23.57
2018-05-13T17:47:28.725Z,23.93
2018-05-13T17:49:56.306Z,24.22
2018-05-13T17:52:23.839Z,24.12
2018-05-13T17:54:51.452Z,24.63
2018-05-13T17:57:19.081Z,25.04
2018-05-13T17:59:47.207Z,25.19
2018-05-13T18:02:15.258Z,25.50
2018-05-13T18:04:43.481Z,25.52
2018-05-13T18:07:11.079Z,25.78
2018-05-13T18:09:39.264Z,26.13
2018-05-13T18:12:06.848Z,26.53
2018-05-13T18:14:34.891Z,26.69
2018-05-13T18:17:02.616Z,26.54
2018-05-13T18:19:30.675Z,27.24
2018-05-13T18:21:58.208Z,27.87
2018-05-13T18:24:25.839Z,29.18
2018-05-13T18:26:54.117Z,29.92
2018-05-13T18:29:21.661Z,30.85
2018-05-13T18:31:49.224Z,31.55
2018-05-13T18:34:17.295Z,32.54
2018-05-13T18:36:45.322Z,33.02
2018-05-13T18:39:12.953Z,33.86
2018-05-13T18:41:41.026Z,34.20
2018-05-13T18:44:09.208Z,34.76
2018-05-13T18:46:40.016Z,35.11
2018-05-13T18:49:08.531Z,35.67
2018-05-13T18:51:36.288Z,36.10
2018-05-13T18:54:03.898Z,36.51
2018-05-13T18:56:32.176Z,36.79
2018-05-13T18:58:59.798Z,37.12
2018-05-13T19:01:28.086Z,37.41
2018-05-13T19:03:55.624Z,37.68
2018-05-13T19:06:23.928Z,37.84
2018-05-13T19:08:51.485Z,38.66
2018-05-13T19:11:19.041Z,38.64
2018-05-13T19:13:46.603Z,39.27
2018-05-13T19:16:14.700Z,39.19
2018-05-13T19:18:42.867Z,39.25
2018-05-13T19:21:10.404Z,39.39
2018-05-13T19:23:38.838Z,39.72
2018-05-13T19:26:06.618Z,40.10
2018-05-13T19:28:35.392Z,40.40
2018-05-13T19:31:02.955Z,40.40
2018-05-13T19:33:31.192Z,40.69
2018-05-13T19:35:59.580Z,41.38
2018-05-13T19:38:27.392Z,41.42
2018-05-13T19:40:54.952Z,41.33
2018-05-13T19:43:23.021Z,41.91
2018-05-13T19:45:50.544Z,41.87
2018-05-13T19:48:19.296Z,41.85
2018-05-13T19:50:46.835Z,42.30
2018-05-13T19:53:15.199Z,42.61
2018-05-13T19:55:42.747Z,42.74
2018-05-13T19:58:10.279Z,43.25
2018-05-13T20:00:38.228Z,43.62
2018-05-13T20:03:07.544Z,44.02
2018-05-13T20:05:35.959Z,43.85
2018-05-13T20:08:03.517Z,44.41
2018-05-13T20:10:31.079Z,44.29
2018-05-13T20:12:58.650Z,44.50
2018-05-13T20:15:26.894Z,44.56
2018-05-13T20:17:55.119Z,44.59
2018-05-13T20:20:22.643Z,44.82
2018-05-13T20:23:02.064Z,45.26
2018-05-13T20:25:29.608Z,45.69
2018-05-13T20:27:57.883Z,45.93
2018-05-13T20:30:25.470Z,45.94
2018-05-13T20:32:53.001Z,45.74
2018-05-13T20:35:21.339Z,45.94
2018-05-13T20:37:48.871Z,46.32
2018-05-13T20:40:16.407Z,46.40
2018-05-13T20:42:43.959Z,47.01
2018-05-13T20:45:12.105Z,47.71
2018-05-13T20:47:40.120Z,48.25
2018-05-13T20:50:07.909Z,48.46
2018-05-13T20:52:35.968Z,48.39
2018-05-13T20:55:03.542Z,48.73
2018-05-13T20:57:31.083Z,48.99
2018-05-13T20:59:58.651Z,49.79
2018-05-13T21:02:26.531Z,49.70
2018-05-13T21:04:54.716Z,49.84
2018-05-13T21:07:22.284Z,50.15
2018-05-13T21:09:49.813Z,50.41
2018-05-13T21:12:17.403Z,50.19
2018-05-13T21:14:45.612Z,50.05
2018-05-13T21:17:13.154Z,50.57
2018-05-13T21:19:41.807Z,50.69
2018-05-13T21:22:09.388Z,50.75
2018-05-13T21:24:37.136Z,50.74
2018-05-13T21:27:05.313Z,50.95
2018-05-13T21:29:32.861Z,51.42
2018-05-13T21:32:00.395Z,51.23
2018-05-13T21:34:28.688Z,51.31
2018-05-13T21:36:56.949Z,51.47
2018-05-13T21:39:24.488Z,52.22
2018-05-13T21:41:52.031Z,52.12
2018-05-13T21:44:19.851Z,52.19
2018-05-13T21:46:48.262Z,52.39
2018-05-13T21:49:16.208Z,52.34
2018-05-13T21:51:43.738Z,52.35
2018-05-13T21:54:11.272Z,52.72
2018-05-13T21:56:38.879Z,53.47
2018-05-13T21:59:06.451Z,54.16
2018-05-13T22:01:34.860Z,54.81
2018-05-13T22:04:02.404Z,54.77
2018-05-13T22:06:30.762Z,55.83
2018-05-13T22:08:58.301Z,55.23
2018-05-13T22:11:25.956Z,56.52
2018-05-13T22:13:54.616Z,55.93
2018-05-13T22:16:22.157Z,56.02
2018-05-13T22:18:50.174Z,56.57
2018-05-13T22:21:17.706Z,56.54
2018-05-13T22:23:45.232Z,58.08
2018-05-13T22:26:12.798Z,57.44
2018-05-13T22:28:41.234Z,57.47
2018-05-13T22:31:08.878Z,58.00
2018-05-13T22:33:37.562Z,57.77
2018-05-13T22:36:06.030Z,59.22
2018-05-13T22:38:33.555Z,58.51
2018-05-13T22:41:01.094Z,58.92
2018-05-13T22:43:29.331Z,59.05
2018-05-13T22:45:57.443Z,59.19
2018-05-13T22:48:26.030Z,59.43
2018-05-13T22:50:53.615Z,59.57
2018-05-13T22:53:21.183Z,59.86
2018-05-13T22:55:48.771Z,61.07
2018-05-13T22:58:16.363Z,61.41
2018-05-13T23:00:44.992Z,60.76
2018-05-13T23:03:12.540Z,60.63
2018-05-13T23:05:41.186Z,60.97
2018-05-13T23:08:09.035Z,61.32
2018-05-13T23:10:36.580Z,61.60
2018-05-13T23:13:04.217Z,61.36
2018-05-13T23:15:32.339Z,61.63
2018-05-13T23:18:00.531Z,62.51
2018-05-13T23:20:28.072Z,62.36
2018-05-13T23:22:55.635Z,62.87
2018-05-13T23:27:50.933Z,63.13
2018-05-13T23:30:18.475Z,63.50
2018-05-13T23:32:46.018Z,63.75
2018-05-13T23:35:14.181Z,63.52
2018-05-13T23:37:41.723Z,63.62
2018-05-13T23:40:09.289Z,63.95
2018-05-13T23:42:37.040Z,64.18
2018-05-13T23:45:05.299Z,64.74
2018-05-13T23:47:33.560Z,65.34
2018-05-13T23:50:01.689Z,64.88
2018-05-13T23:52:29.227Z,65.95
2018-05-13T23:54:56.759Z,65.27
2018-05-13T23:57:24.348Z,65.89
2018-05-13T23:59:51.918Z,66.13
